Rocksprings, Texas
Current Conditions -  °F | °C
As of 5:10 AM on Thursday 18 Dec 2014 (Local Time) from KECU Reporting Station
Moderate Fog Moderate Fog  
Wind Chill: 55°   Ceiling: 100
Heat Index: 55°   Visibility: 0mi
Dew Point: 55°   Wind: 0mph
Humidity: 100%   Direction: NA
Pressure: 30.1"   Gusts: NA
Location:  30.02°N, 100.21°W
Report Text: KECU 181110Z AUTO 00000KT M1/4SM FG OVC001 13/13 A3010 RMK AO2
Loading
Personal Weather Stations






























Interactive Weather Map New forecast layout! Learn more

10-Day Weather Forecast

Advertisements
Track Severe Weather on mobile